Economy, Missouri
Current Conditions -  °F | °C
As of 3:55 AM on Friday 31 Oct 2014 (Local Time) from KIRK Reporting Station
Overcast Overcast  
Wind Chill: 37°   Ceiling: 2800
Heat Index: 45°   Visibility: 10mi
Dew Point: 35°   Wind: 22mph
Humidity: 68%   Direction: 340°NNW
Pressure: 30.24"   Gusts: 30mph
Location:  39.9265°N, 92.4529°W
Report Text: KIRK 310855Z AUTO 34019G26KT 10SM OVC028 07/02 A3024 RMK AO2 PK WND 33026/0852 SLP244 T00720017 53026
Loading
Personal Weather Stations






























Interactive Weather Map
Tropical Storm Tracking
New forecast layout! Learn more

10-Day Weather Forecast

Advertisements
Track Severe Weather on mobile